Time;durP1;ratioP1;P1;durP2;ratioP2;P2;SDS_P1;SDS_P2;PMS_P1;PMS_P2;Temp;Humidity;BMP_temperature;BMP_pressure;BME280_temperature;BME280_humidity;BME280_pressure;Samples;Min_cycle;Max_cycle;Signal;HPM_P1;HPM_P2
2021/09/08 00:01:48;;;;;;;86.25;42.47;;;;;;;15.29;100.00;101805.09;4794225;29;20046;-79
2021/09/08 00:04:13;;;;;;;81.13;41.25;;;;;;;15.34;100.00;101808.03;4810625;29;20111;-79
2021/09/08 00:06:39;;;;;;;84.32;43.08;;;;;;;15.07;100.00;101776.50;4797637;29;20046;-79
2021/09/08 00:09:04;;;;;;;83.82;41.75;;;;;;;15.25;100.00;101801.97;4814016;29;20034;-79
2021/09/08 00:11:29;;;;;;;89.05;41.45;;;;;;;15.32;100.00;101804.69;4827587;29;20369;-79
2021/09/08 00:13:55;;;;;;;88.05;41.88;;;;;;;15.30;100.00;101801.34;4825045;29;20044;-79
2021/09/08 00:16:20;;;;;;;88.60;43.00;;;;;;;15.24;100.00;101786.75;4831869;29;20330;-79
2021/09/08 00:18:46;;;;;;;85.65;42.97;;;;;;;15.33;100.00;101800.94;4830424;29;20058;-80
2021/09/08 00:21:11;;;;;;;86.35;42.85;;;;;;;15.26;100.00;101792.81;4816564;29;20037;-79
2021/09/08 00:23:37;;;;;;;90.57;42.33;;;;;;;15.37;100.00;101795.94;4830074;29;20192;-80
2021/09/08 00:26:02;;;;;;;97.38;44.50;;;;;;;15.41;100.00;101791.78;4837454;29;20031;-79
2021/09/08 00:28:27;;;;;;;91.35;42.75;;;;;;;15.39;100.00;101791.97;4814211;29;20053;-79
2021/09/08 00:31:02;;;;;;;89.95;42.60;;;;;;;15.40;100.00;101792.81;4830580;29;20034;-79
2021/09/08 00:33:29;;;;;;;86.85;43.30;;;;;;;15.41;100.00;101784.47;4844242;29;20108;-79
2021/09/08 00:35:54;;;;;;;96.50;44.83;;;;;;;15.47;100.00;101789.06;4818782;29;20049;-79
2021/09/08 00:38:21;;;;;;;97.20;43.95;;;;;;;15.54;100.00;101786.34;4840403;29;20034;-80
2021/09/08 00:40:46;;;;;;;88.32;43.05;;;;;;;15.58;100.00;101786.78;4815716;29;20041;-79
2021/09/08 00:43:11;;;;;;;87.28;42.30;;;;;;;15.26;100.00;101726.88;4823880;29;20039;-80
2021/09/08 00:45:37;;;;;;;89.88;42.67;;;;;;;15.65;100.00;101783.00;4814820;29;20324;-79
2021/09/08 00:48:03;;;;;;;81.85;40.83;;;;;;;15.40;100.00;101733.16;4822697;29;20371;-80
2021/09/08 00:50:29;;;;;;;76.68;40.30;;;;;;;15.66;100.00;101775.69;4832794;29;20030;-79
2021/09/08 00:52:59;;;;;;;77.15;39.65;;;;;;;15.57;100.00;101756.09;4842229;29;20134;-80
2021/09/08 00:55:26;;;;;;;74.03;38.33;;;;;;;15.64;100.00;101758.81;4846406;29;20030;-79
2021/09/08 00:57:52;;;;;;;72.47;36.65;;;;;;;15.78;100.00;101775.94;4827423;29;20070;-79
2021/09/08 01:00:18;;;;;;;71.35;36.47;;;;;;;15.81;100.00;101768.22;4835210;29;20054;-80
2021/09/08 01:02:44;;;;;;;66.55;34.10;;;;;;;15.77;100.00;101763.44;4827080;29;20045;-79
2021/09/08 01:05:10;;;;;;;53.95;31.63;;;;;;;15.81;100.00;101762.78;4828162;29;20117;-79
2021/09/08 01:07:37;;;;;;;53.78;31.10;;;;;;;15.88;100.00;101769.03;4811962;29;20043;-79
2021/09/08 01:10:04;;;;;;;52.78;30.40;;;;;;;15.90;100.00;101771.56;4842995;29;20433;-79
2021/09/08 01:12:29;;;;;;;50.55;28.50;;;;;;;15.70;100.00;101728.16;4826506;29;20026;-79
2021/09/08 01:14:55;;;;;;;46.28;27.65;;;;;;;15.95;100.00;101760.88;4827698;29;20121;-79
2021/09/08 01:17:20;;;;;;;48.85;27.17;;;;;;;15.92;100.00;101754.00;4825259;29;20034;-79
2021/09/08 01:19:46;;;;;;;49.35;28.20;;;;;;;16.00;100.00;101761.09;4825772;29;20068;-79
2021/09/08 01:22:11;;;;;;;47.80;28.58;;;;;;;15.91;100.00;101746.91;4828397;29;20067;-79
2021/09/08 01:24:40;;;;;;;49.15;27.90;;;;;;;15.85;100.00;101736.06;4810936;29;20475;-79
2021/09/08 01:27:05;;;;;;;53.28;29.65;;;;;;;15.79;100.00;101726.88;4818619;29;20035;-79
2021/09/08 01:29:30;;;;;;;48.63;28.63;;;;;;;16.02;100.00;101758.16;4794172;29;20092;-79
2021/09/08 01:31:58;;;;;;;49.95;29.45;;;;;;;16.04;100.00;101766.94;4809119;29;20099;-79
2021/09/08 01:34:25;;;;;;;52.63;31.00;;;;;;;16.04;100.00;101761.50;4810309;29;20027;-79
2021/09/08 01:36:51;;;;;;;56.80;31.92;;;;;;;16.02;100.00;101758.16;4811957;29;20373;-79
2021/09/08 01:39:18;;;;;;;60.70;32.35;;;;;;;15.92;100.00;101740.41;4826844;29;20034;-79
2021/09/08 01:41:44;;;;;;;60.42;34.05;;;;;;;16.09;100.00;101769.84;4827570;29;20109;-79
2021/09/08 01:44:11;;;;;;;63.75;36.20;;;;;;;16.10;100.00;101772.34;4826804;29;20022;-80
2021/09/08 01:46:38;;;;;;;66.75;35.00;;;;;;;15.59;100.00;101678.03;4816085;29;20045;-79
2021/09/08 01:49:04;;;;;;;65.38;36.17;;;;;;;16.11;100.00;101765.03;4817907;29;20034;-80
2021/09/08 01:51:29;;;;;;;68.18;38.15;;;;;;;16.12;100.00;101769.41;4815208;29;20370;-80
2021/09/08 01:53:54;;;;;;;71.82;38.20;;;;;;;16.00;100.00;101735.84;4801630;29;20126;-79
2021/09/08 01:56:21;;;;;;;70.60;37.10;;;;;;;16.13;100.00;101758.34;4804567;29;20046;-80
2021/09/08 01:58:46;;;;;;;70.85;38.13;;;;;;;16.13;100.00;101761.06;4815993;29;20130;-80
2021/09/08 02:01:13;;;;;;;70.63;38.38;;;;;;;16.08;100.00;101751.88;4817404;29;20082;-80
2021/09/08 02:03:38;;;;;;;71.95;37.67;;;;;;;15.97;100.00;101734.38;4813692;29;20061;-79
2021/09/08 02:06:24;;;;;;;62.92;36.83;;;;;;;16.16;100.00;101754.38;4811784;29;20034;-80
2021/09/08 02:08:53;;;;;;;65.15;34.55;;;;;;;16.12;100.00;101740.38;4829330;29;20109;-80
2021/09/08 02:11:19;;;;;;;63.42;35.22;;;;;;;16.20;100.00;101755.63;4827197;29;20046;-79
2021/09/08 02:13:45;;;;;;;66.90;36.05;;;;;;;16.11;100.00;101730.56;4842525;29;20038;-80
2021/09/08 02:16:11;;;;;;;65.47;37.25;;;;;;;16.21;100.00;101752.69;4827704;29;20038;-79
2021/09/08 02:18:36;;;;;;;68.25;37.38;;;;;;;16.17;100.00;101740.59;4812836;29;20046;-79
2021/09/08 02:21:01;;;;;;;70.97;37.28;;;;;;;16.23;100.00;101752.50;4830677;29;20038;-79
2021/09/08 02:23:27;;;;;;;67.55;37.05;;;;;;;16.16;100.00;101741.66;4833629;29;20038;-79
2021/09/08 02:25:52;;;;;;;70.97;38.85;;;;;;;16.12;100.00;101726.81;4811793;29;20042;-79
2021/09/08 02:28:20;;;;;;;68.80;37.63;;;;;;;16.03;100.00;101713.69;4817009;29;20030;-79
2021/09/08 02:30:48;;;;;;;67.35;37.28;;;;;;;16.17;100.00;101735.16;4827154;29;20023;-79
2021/09/08 02:33:31;;;;;;;65.15;36.05;;;;;;;16.19;100.00;101738.50;4810922;29;20049;-79
2021/09/08 02:35:57;;;;;;;62.28;36.58;;;;;;;16.14;100.00;101718.47;4821245;29;20053;-79
2021/09/08 02:38:23;;;;;;;64.10;35.88;;;;;;;16.23;100.00;101724.50;4808584;29;20034;-79
2021/09/08 02:40:48;;;;;;;69.63;36.83;;;;;;;16.30;100.00;101745.16;4811364;29;21017;-79
2021/09/08 02:43:14;;;;;;;65.25;36.58;;;;;;;16.24;100.00;101737.84;4826944;29;20057;-79
2021/09/08 02:45:39;;;;;;;63.03;36.72;;;;;;;16.29;100.00;101743.50;4810772;29;20526;-79
2021/09/08 02:48:05;;;;;;;61.97;35.65;;;;;;;16.22;100.00;101726.34;4810134;29;20049;-79
2021/09/08 02:50:45;;;;;;;63.55;35.83;;;;;;;16.28;100.00;101738.25;4825660;29;20037;-79
2021/09/08 02:53:10;;;;;;;70.25;36.50;;;;;;;16.28;100.00;101736.38;4837637;29;20030;-80
2021/09/08 02:55:36;;;;;;;62.70;35.40;;;;;;;16.19;100.00;101722.22;4808755;29;20264;-79
2021/09/08 02:58:01;;;;;;;63.83;36.22;;;;;;;16.30;100.00;101731.56;4809147;29;20035;-79
2021/09/08 03:00:27;;;;;;;60.42;34.88;;;;;;;16.36;100.00;101738.03;4812582;29;20081;-79
2021/09/08 03:02:53;;;;;;;69.90;36.40;;;;;;;16.36;100.00;101738.03;4828810;29;20039;-79
2021/09/08 03:05:19;;;;;;;70.68;36.38;;;;;;;16.39;100.00;101745.72;4811431;29;20053;-79
2021/09/08 03:08:02;;;;;;;59.45;34.63;;;;;;;16.37;100.00;101740.53;4810829;29;20053;-80
2021/09/08 03:10:31;;;;;;;64.18;36.58;;;;;;;16.37;100.00;101747.84;4830358;29;20483;-79
2021/09/08 03:12:56;;;;;;;64.90;35.30;;;;;;;16.35;100.00;101737.16;4810583;29;20673;-80
2021/09/08 03:15:22;;;;;;;69.00;36.38;;;;;;;16.27;100.00;101718.41;4811561;29;20027;-79
2021/09/08 03:17:48;;;;;;;64.88;34.90;;;;;;;16.42;100.00;101743.44;4808751;29;20030;-80
2021/09/08 03:20:13;;;;;;;58.35;35.75;;;;;;;16.40;100.00;101731.13;4826415;29;20038;-79
2021/09/08 03:22:38;;;;;;;61.08;36.78;;;;;;;16.41;100.00;101727.34;4808829;29;20038;-79
2021/09/08 03:25:05;;;;;;;64.47;35.70;;;;;;;16.20;100.00;101698.59;4796040;29;20450;-80
2021/09/08 03:27:31;;;;;;;62.08;33.90;;;;;;;16.34;100.00;101721.94;4826626;29;20034;-79
2021/09/08 03:29:58;;;;;;;58.35;34.50;;;;;;;16.39;100.00;101721.28;4827020;29;20219;-79
2021/09/08 03:32:23;;;;;;;63.45;35.50;;;;;;;16.35;100.00;101709.19;4827720;29;20065;-79
2021/09/08 03:34:48;;;;;;;63.60;35.25;;;;;;;16.40;100.00;101718.34;4826503;29;20368;-80
2021/09/08 03:37:14;;;;;;;65.68;35.72;;;;;;;16.35;100.00;101717.31;4826796;29;20031;-79
2021/09/08 03:39:39;;;;;;;56.63;32.65;;;;;;;16.34;100.00;101711.06;4810533;29;20034;-79
2021/09/08 03:42:05;;;;;;;57.75;33.22;;;;;;;16.39;100.00;101722.13;4797310;29;20171;-80
2021/09/08 03:44:30;;;;;;;59.38;33.15;;;;;;;16.41;100.00;101720.03;4836613;29;20034;-79
2021/09/08 03:46:56;;;;;;;50.60;30.45;;;;;;;16.32;100.00;101705.00;4801642;29;20035;-79
2021/09/08 03:49:21;;;;;;;50.03;30.50;;;;;;;16.41;100.00;101714.59;4821722;29;20042;-79
2021/09/08 03:51:47;;;;;;;45.40;28.50;;;;;;;16.44;100.00;101711.44;4824547;29;20049;-79
2021/09/08 03:54:13;;;;;;;43.47;26.85;;;;;;;16.29;100.00;101683.75;4823787;29;20546;-79
2021/09/08 03:56:39;;;;;;;42.92;25.05;;;;;;;16.41;100.00;101698.28;4789313;29;20434;-80
2021/09/08 03:59:05;;;;;;;39.22;25.08;;;;;;;16.47;100.00;101699.31;4806303;29;20043;-79
2021/09/08 04:01:31;;;;;;;45.67;24.92;;;;;;;16.49;100.00;101705.38;4825158;29;20134;-77
2021/09/08 04:03:56;;;;;;;40.75;25.33;;;;;;;16.49;100.00;101699.94;4778744;29;20142;-79
2021/09/08 04:06:22;;;;;;;39.60;25.25;;;;;;;16.51;100.00;101692.38;4795487;29;20027;-79
2021/09/08 04:08:47;;;;;;;38.90;24.92;;;;;;;16.51;100.00;101697.00;4841065;29;20449;-79
2021/09/08 04:11:14;;;;;;;41.25;25.45;;;;;;;16.50;100.00;101689.91;4811513;29;20046;-79
2021/09/08 04:13:39;;;;;;;45.58;27.52;;;;;;;16.53;100.00;101693.03;4830547;29;20124;-78
2021/09/08 04:16:05;;;;;;;46.67;27.58;;;;;;;16.53;100.00;101694.91;4827178;29;20159;-78
2021/09/08 04:18:30;;;;;;;51.08;29.05;;;;;;;16.53;100.00;101689.47;4806548;29;20033;-78
2021/09/08 04:20:56;;;;;;;49.47;29.02;;;;;;;16.54;100.00;101699.28;4838030;29;20045;-79
2021/09/08 04:23:22;;;;;;;48.10;29.83;;;;;;;16.38;100.00;101659.84;4798237;29;20037;-80
2021/09/08 04:25:47;;;;;;;45.67;28.55;;;;;;;16.52;100.00;101685.06;4846635;29;20038;-79
2021/09/08 04:28:13;;;;;;;48.95;28.70;;;;;;;16.58;100.00;101687.75;4841503;29;20030;-78
2021/09/08 04:30:39;;;;;;;49.15;28.80;;;;;;;16.43;100.00;101666.31;4830189;29;20396;-80
2021/09/08 04:33:12;;;;;;;50.88;30.25;;;;;;;16.38;100.00;101662.56;4809016;29;20162;-79
2021/09/08 04:35:39;;;;;;;51.70;30.25;;;;;;;16.49;100.00;101671.91;4810214;29;20042;-79
2021/09/08 04:38:05;;;;;;;50.50;31.15;;;;;;;16.53;100.00;101673.16;4832259;29;20097;-80
2021/09/08 04:40:30;;;;;;;50.45;30.50;;;;;;;16.57;100.00;101677.94;4840412;29;20060;-80
2021/09/08 04:42:56;;;;;;;50.97;30.25;;;;;;;16.59;100.00;101684.00;4820231;29;20403;-80
2021/09/08 04:45:21;;;;;;;53.15;29.90;;;;;;;16.52;100.00;101668.78;4828758;29;20144;-80
2021/09/08 04:47:46;;;;;;;52.05;31.20;;;;;;;16.59;100.00;101680.47;4839826;29;20039;-79
2021/09/08 04:50:12;;;;;;;54.00;32.50;;;;;;;16.42;100.00;101648.38;4810551;29;20026;-79
2021/09/08 04:52:38;;;;;;;48.97;30.55;;;;;;;16.57;100.00;101675.22;4848639;29;20057;-80
2021/09/08 04:55:06;;;;;;;49.22;30.42;;;;;;;16.42;100.00;101644.78;4826007;29;20027;-80
2021/09/08 04:57:32;;;;;;;46.58;27.92;;;;;;;16.51;100.00;101658.97;4840657;29;20026;-80
2021/09/08 04:59:57;;;;;;;50.90;29.42;;;;;;;16.59;100.00;101677.75;4826006;29;20126;-80
2021/09/08 05:02:23;;;;;;;52.90;29.70;;;;;;;16.62;100.00;101677.28;4814452;29;20069;-78
2021/09/08 05:04:48;;;;;;;52.22;31.08;;;;;;;16.60;100.00;101679.41;4846589;29;20038;-79
2021/09/08 05:07:13;;;;;;;52.53;30.00;;;;;;;16.62;100.00;101675.41;4821178;29;20460;-79
2021/09/08 05:09:39;;;;;;;50.20;30.70;;;;;;;16.56;100.00;101673.56;4815477;29;20029;-79
2021/09/08 05:12:04;;;;;;;49.55;29.27;;;;;;;16.61;100.00;101683.78;4829347;29;20037;-79
2021/09/08 05:14:30;;;;;;;54.80;29.92;;;;;;;16.62;100.00;101675.41;4845245;29;20388;-79
2021/09/08 05:16:55;;;;;;;52.95;30.17;;;;;;;16.62;100.00;101675.41;4833390;29;20042;-79
2021/09/08 05:19:21;;;;;;;53.88;30.65;;;;;;;16.64;100.00;101675.19;4845876;29;20042;-79
2021/09/08 05:21:47;;;;;;;52.42;30.48;;;;;;;16.66;100.00;101679.34;4826453;29;20034;-80
2021/09/08 05:24:12;;;;;;;54.13;28.75;;;;;;;16.58;100.00;101668.72;4854146;29;20069;-80
2021/09/08 05:26:38;;;;;;;55.47;30.80;;;;;;;16.62;100.00;101674.56;4845215;29;20038;-80
2021/09/08 05:29:03;;;;;;;63.33;33.67;;;;;;;16.65;100.00;101676.84;4840610;29;20038;-80
2021/09/08 05:31:29;;;;;;;57.90;32.22;;;;;;;16.68;100.00;101670.97;4842167;29;20421;-80
2021/09/08 05:33:54;;;;;;;56.17;32.50;;;;;;;16.69;100.00;101678.09;4814704;29;20038;-80
2021/09/08 05:36:20;;;;;;;57.33;33.50;;;;;;;16.51;100.00;101648.09;4836611;29;20212;-81
2021/09/08 05:38:46;;;;;;;60.75;33.10;;;;;;;16.70;100.00;101679.75;4859185;29;20034;-81
2021/09/08 05:41:12;;;;;;;56.53;33.42;;;;;;;16.74;100.00;101682.88;4843476;29;20029;-80
2021/09/08 05:43:38;;;;;;;59.70;33.53;;;;;;;16.72;100.00;101672.22;4840392;29;20041;-80
2021/09/08 05:46:05;;;;;;;61.58;33.15;;;;;;;16.75;100.00;101685.38;4814033;29;20098;-80
2021/09/08 05:48:34;;;;;;;61.00;33.22;;;;;;;16.76;100.00;101684.34;4842544;29;20034;-80
2021/09/08 05:51:01;;;;;;;61.17;32.38;;;;;;;16.77;100.00;101668.88;4839523;29;20054;-80
2021/09/08 05:53:27;;;;;;;59.25;32.40;;;;;;;16.76;100.00;101670.75;4827850;29;20034;-80
2021/09/08 05:55:55;;;;;;;57.45;30.73;;;;;;;16.72;100.00;101655.06;4841100;29;20427;-80
2021/09/08 05:58:20;;;;;;;55.30;31.33;;;;;;;16.95;100.00;101684.41;4859158;29;20109;-80
2021/09/08 06:00:45;;;;;;;52.72;29.67;;;;;;;16.59;100.00;101624.22;4855821;29;20034;-81
2021/09/08 06:03:11;;;;;;;55.97;29.55;;;;;;;17.01;100.00;101688.97;4845056;29;20036;-81
2021/09/08 06:05:36;;;;;;;49.85;29.35;;;;;;;16.84;100.00;101640.59;4834193;29;20037;-81
2021/09/08 06:10:37;;;;;;;54.58;28.70;;;;;;;16.64;100.00;101599.94;5771132;24;20048;-81
2021/09/08 06:13:03;;;;;;;51.45;28.60;;;;;;;16.84;100.00;101620.72;4809940;29;20099;-81
2021/09/08 06:15:29;;;;;;;49.25;27.90;;;;;;;16.70;100.00;101600.13;4808323;29;20060;-81
2021/09/08 06:17:56;;;;;;;53.22;28.13;;;;;;;16.93;100.00;101621.31;4810336;29;20129;-81
2021/09/08 06:20:21;;;;;;;54.53;29.85;;;;;;;17.25;100.00;101673.72;4809273;29;20091;-80
2021/09/08 06:22:47;;;;;;;52.03;29.80;;;;;;;17.23;100.00;101671.25;4810266;29;20057;-81
2021/09/08 06:25:13;;;;;;;50.38;28.38;;;;;;;16.63;100.00;101568.38;4810560;30;20019;-82
2021/09/08 06:27:39;;;;;;;55.00;28.90;;;;;;;16.51;100.00;101550.28;4808452;29;20019;-82
2021/09/08 06:30:06;;;;;;;54.88;29.25;;;;;;;16.98;100.00;101610.56;5333717;24;20045;-81
2021/09/08 06:32:33;;;;;;;55.50;30.48;;;;;;;17.39;100.00;101672.56;4812790;29;20037;-80
2021/09/08 06:35:02;;;;;;;58.95;30.70;;;;;;;17.44;100.00;101680.06;4796129;29;20035;-82
2021/09/08 06:37:28;;;;;;;56.47;30.02;;;;;;;17.57;100.00;101671.78;4828197;29;20040;-82
2021/09/08 06:39:54;;;;;;;51.33;28.00;;;;;;;17.22;100.00;101617.06;4826124;29;20030;-82
2021/09/08 06:42:20;;;;;;;52.17;28.92;;;;;;;17.13;100.00;101595.59;4815407;29;20054;-79
2021/09/08 06:44:49;;;;;;;52.58;28.95;;;;;;;17.18;100.00;101596.81;4825348;29;20060;-82
2021/09/08 06:47:15;;;;;;;49.53;28.58;;;;;;;17.14;100.00;101591.81;4823809;29;20054;-80
2021/09/08 06:49:40;;;;;;;51.00;28.38;;;;;;;16.78;100.00;101524.59;4826144;29;20030;-81
2021/09/08 06:52:06;;;;;;;45.50;26.13;;;;;;;17.42;100.00;101608.69;4824104;29;20082;-81
2021/09/08 06:54:33;;;;;;;51.10;27.98;;;;;;;17.02;100.00;101546.53;4825053;29;20019;-83
2021/09/08 06:57:00;;;;;;;46.15;26.67;;;;;;;17.15;100.00;101551.84;4826936;29;20079;-81
2021/09/08 06:59:25;;;;;;;46.10;26.80;;;;;;;17.97;100.00;101664.03;4808273;29;20058;-81
2021/09/08 07:01:51;;;;;;;44.35;24.88;;;;;;;17.05;99.43;101495.28;4824387;29;20469;-82
2021/09/08 07:04:16;;;;;;;39.92;24.77;;;;;;;17.33;98.97;101526.56;4823996;29;20052;-82
2021/09/08 07:06:42;;;;;;;42.92;24.38;;;;;;;18.24;98.88;101659.09;4825152;29;20054;-82
2021/09/08 07:09:09;;;;;;;40.83;23.83;;;;;;;17.96;98.08;101601.66;4828220;29;20031;-82
2021/09/08 07:11:36;;;;;;;42.13;22.85;;;;;;;17.49;98.50;101545.00;4826350;29;20007;-83
2021/09/08 07:14:02;;;;;;;35.53;21.55;;;;;;;17.35;98.43;101508.09;4810196;29;20028;-83
2021/09/08 07:16:28;;;;;;;35.10;20.63;;;;;;;17.56;97.64;101537.59;4813027;29;20035;-83
2021/09/08 07:18:54;;;;;;;33.28;20.08;;;;;;;18.46;97.35;101653.97;4827850;29;20055;-81
2021/09/08 07:21:20;;;;;;;29.63;19.13;;;;;;;17.65;96.91;101513.63;4817533;29;20011;-82
2021/09/08 07:23:50;;;;;;;29.80;18.40;;;;;;;17.33;96.49;101464.81;4812820;29;20015;-81
2021/09/08 07:26:16;;;;;;;27.85;17.98;;;;;;;18.10;96.03;101567.72;4810418;29;20130;-81
2021/09/08 07:28:41;;;;;;;27.75;17.48;;;;;;;18.17;95.87;101575.78;4808239;29;20112;-81
2021/09/08 07:31:07;;;;;;;30.90;18.65;;;;;;;18.01;95.50;101539.13;4809168;29;20050;-83
2021/09/08 07:33:33;;;;;;;29.67;18.80;;;;;;;17.87;95.31;101527.59;4812812;29;20025;-82
2021/09/08 07:35:59;;;;;;;28.20;18.08;;;;;;;17.60;95.90;101487.09;4808245;29;20022;-81
2021/09/08 07:38:26;;;;;;;29.02;18.52;;;;;;;18.09;95.68;101568.78;4807835;29;20064;-80
2021/09/08 07:40:55;;;;;;;24.95;16.85;;;;;;;18.09;95.60;101574.25;4797394;29;20030;-81
2021/09/08 07:43:22;;;;;;;29.17;17.35;;;;;;;18.31;95.60;101610.00;4811845;29;20030;-80
2021/09/08 07:45:51;;;;;;;24.77;16.70;;;;;;;18.44;94.93;101600.78;4825624;29;20027;-81
2021/09/08 07:48:20;;;;;;;24.92;15.68;;;;;;;18.52;95.19;101622.25;4810291;29;20128;-80
2021/09/08 07:50:47;;;;;;;23.80;16.45;;;;;;;18.70;95.48;101649.44;4825217;29;20052;-80
2021/09/08 07:53:13;;;;;;;23.73;15.57;;;;;;;17.89;95.19;101520.03;4824446;29;20018;-82
2021/09/08 07:55:40;;;;;;;24.55;16.40;;;;;;;18.80;94.98;101648.06;4825861;29;20007;-81
2021/09/08 07:58:06;;;;;;;23.60;14.63;;;;;;;17.86;94.91;101498.72;4811067;29;20019;-82
2021/09/08 08:00:35;;;;;;;22.30;14.90;;;;;;;18.13;94.64;101552.81;5141532;24;20074;-82
2021/09/08 08:03:02;;;;;;;25.30;14.48;;;;;;;18.05;94.89;101537.63;4791642;30;20095;-83
2021/09/08 08:05:30;;;;;;;20.95;14.30;;;;;;;18.16;94.65;101531.38;4806492;29;20050;-83
2021/09/08 08:10:31;;;;;;;17.98;12.10;;;;;;;18.11;93.81;101508.63;5460710;24;20033;-81
2021/09/08 08:12:58;;;;;;;17.50;11.77;;;;;;;19.27;92.97;101637.22;4813385;29;20043;-82
2021/09/08 08:18:01;;;;;;;13.00;8.68;;;;;;;19.29;90.51;101581.34;4857481;24;20034;-81
2021/09/08 08:23:30;;;;;;;12.20;7.63;;;;;;;19.12;89.40;101540.31;5339709;24;20031;-83
2021/09/08 08:25:56;;;;;;;10.63;7.53;;;;;;;19.10;88.90;101531.53;4819055;29;20026;-84
2021/09/08 08:28:22;;;;;;;12.25;8.55;;;;;;;19.49;88.62;101575.53;5121414;24;20043;-83
2021/09/08 08:30:49;;;;;;;12.73;8.07;;;;;;;19.18;88.30;101533.09;5315832;24;20065;-82
2021/09/08 08:33:15;;;;;;;14.55;8.32;;;;;;;19.06;88.64;101505.81;4799322;29;20054;-82
2021/09/08 08:35:40;;;;;;;12.63;8.55;;;;;;;18.96;88.24;101500.94;4816604;29;20019;-82
2021/09/08 08:38:06;;;;;;;15.20;8.98;;;;;;;19.49;88.67;101587.28;4801632;29;20027;-82
2021/09/08 08:40:32;;;;;;;13.63;9.45;;;;;;;19.39;88.52;101578.84;4814077;29;20019;-83
2021/09/08 08:43:00;;;;;;;13.45;8.55;;;;;;;19.22;88.07;101567.84;4797614;29;20140;-82
2021/09/08 08:45:30;;;;;;;12.68;8.52;;;;;;;18.96;88.20;101532.84;4813879;29;20023;-82
2021/09/08 08:50:31;;;;;;;13.07;8.63;;;;;;;18.80;88.24;101503.56;5788489;24;20029;-81
2021/09/08 08:55:32;;;;;;;11.30;8.60;;;;;;;18.82;87.82;101501.44;5051504;24;20042;-82
2021/09/08 09:00:33;;;;;;;12.40;6.97;;;;;;;19.31;87.46;101562.03;5125458;24;20042;-81
2021/09/08 09:03:00;;;;;;;11.48;7.90;;;;;;;19.01;87.30;101514.72;4864227;29;20089;-82
2021/09/08 09:05:33;;;;;;;11.00;6.88;;;;;;;19.92;86.96;101648.03;4853679;29;20006;-82
2021/09/08 09:07:59;;;;;;;12.30;7.78;;;;;;;18.91;87.03;101508.22;4954022;24;20145;-82
2021/09/08 09:10:27;;;;;;;10.93;7.45;;;;;;;19.22;87.17;101548.75;4813297;29;20027;-81
2021/09/08 09:12:53;;;;;;;12.15;7.82;;;;;;;19.57;87.13;101601.63;4814443;29;20050;-83
2021/09/08 09:15:21;;;;;;;10.32;7.03;;;;;;;19.18;86.82;101533.91;4817342;29;20032;-83
2021/09/08 09:17:48;;;;;;;11.93;6.85;;;;;;;18.93;86.54;101487.78;4818923;29;20455;-83
2021/09/08 09:20:29;;;;;;;11.00;6.78;;;;;;;19.40;86.50;101547.78;4818168;29;20041;-83
2021/09/08 09:22:57;;;;;;;9.32;7.05;;;;;;;19.54;86.24;101569.38;4808167;29;20076;-82
2021/09/08 09:25:29;;;;;;;9.35;6.47;;;;;;;19.74;85.81;101585.38;4815838;29;20015;-81
2021/09/08 09:27:59;;;;;;;10.02;6.32;;;;;;;19.19;85.58;101497.38;4811477;29;20016;-83
2021/09/08 09:30:27;;;;;;;10.60;5.90;;;;;;;19.07;85.40;101461.09;4798186;29;20018;-84
2021/09/08 09:32:54;;;;;;;9.68;6.53;;;;;;;19.10;85.01;101468.78;4798530;29;20016;-82
2021/09/08 09:38:02;;;;;;;11.30;6.75;;;;;;;19.19;85.78;101512.91;5156034;24;20042;-82
2021/09/08 09:43:07;;;;;;;11.18;6.50;;;;;;;19.05;86.04;101484.25;5303644;24;20050;-82
2021/09/08 09:45:36;;;;;;;10.48;6.93;;;;;;;19.56;85.73;101554.38;4857494;29;20037;-83
2021/09/08 09:48:04;;;;;;;11.98;6.78;;;;;;;19.21;85.12;101500.72;4856272;29;20010;-83
2021/09/08 09:50:35;;;;;;;11.80;7.13;;;;;;;19.12;85.39;101484.94;4860253;29;20026;-82
2021/09/08 10:03:23;;;;;;;13.45;7.57;;;;;;;20.21;84.67;101646.16;5681404;24;20960;-82
2021/09/08 10:08:49;;;;;;;12.80;8.43;;;;;;;19.47;84.50;101531.28;5132977;24;20034;-83
2021/09/08 10:14:00;;;;;;;14.32;8.63;;;;;;;19.18;84.56;101467.63;4810579;29;20039;-81
2021/09/08 10:16:27;;;;;;;11.63;9.02;;;;;;;19.18;84.16;101473.06;4810562;29;20023;-80
2021/09/08 10:18:53;;;;;;;14.25;9.95;;;;;;;19.20;84.14;101484.56;4810398;29;20030;-83
2021/09/08 10:21:25;;;;;;;14.32;9.40;;;;;;;19.31;84.50;101502.00;4811760;29;20068;-82
2021/09/08 10:23:58;;;;;;;13.27;9.50;;;;;;;19.10;84.47;101467.97;4812205;30;20046;-82
2021/09/08 10:26:29;;;;;;;16.98;9.63;;;;;;;19.22;84.21;101468.78;4811801;29;20023;-83
2021/09/08 10:29:04;;;;;;;12.30;9.05;;;;;;;20.24;84.29;101617.53;4811331;29;20043;-83
2021/09/08 10:31:31;;;;;;;14.10;10.02;;;;;;;19.17;83.77;101474.13;4826974;29;20015;-82
2021/09/08 10:33:58;;;;;;;13.07;9.20;;;;;;;19.17;83.85;101455.03;4812789;29;20046;-83
2021/09/08 10:36:25;;;;;;;12.88;9.43;;;;;;;19.90;83.92;101568.19;4827354;29;20019;-83
2021/09/08 10:39:12;;;;;;;12.00;9.55;;;;;;;20.39;83.39;101626.00;5552957;24;20948;-82
2021/09/08 10:41:47;;;;;;;14.73;9.63;;;;;;;20.37;83.19;101619.97;4792911;30;20056;-81
2021/09/08 10:44:16;;;;;;;15.57;10.50;;;;;;;19.31;82.72;101452.88;4793531;30;20036;-81
2021/09/08 10:46:55;;;;;;;15.45;9.55;;;;;;;19.56;82.46;101483.41;4793742;30;20112;-82
2021/09/08 10:49:36;;;;;;;12.50;8.85;;;;;;;20.53;82.10;101621.94;4792606;29;20083;-81
2021/09/08 10:52:06;;;;;;;13.52;9.13;;;;;;;19.60;81.56;101462.75;4819998;29;20047;-82
2021/09/08 10:54:32;;;;;;;12.73;8.65;;;;;;;20.12;81.01;101539.13;4812311;29;20011;-83
2021/09/08 10:59:59;;;;;;;11.43;7.68;;;;;;;20.74;80.06;101625.84;5043130;24;20085;-83
2021/09/08 11:02:25;;;;;;;10.77;7.20;;;;;;;20.29;80.28;101521.94;4830127;29;20039;-82
2021/09/08 11:04:58;;;;;;;10.38;7.00;;;;;;;19.98;79.28;101471.41;4889422;24;20073;-83
2021/09/08 11:07:24;;;;;;;9.80;6.78;;;;;;;20.47;78.94;101523.63;5092192;24;20051;-82
2021/09/08 11:09:51;;;;;;;11.30;6.78;;;;;;;20.62;79.04;101534.84;4813822;29;20058;-82
2021/09/08 11:12:16;;;;;;;10.63;6.28;;;;;;;20.64;78.15;101503.44;4827980;29;20035;-82
2021/09/08 11:14:50;;;;;;;8.27;6.15;;;;;;;20.44;77.79;101453.06;4828104;29;20023;-81
2021/09/08 11:17:23;;;;;;;8.05;5.55;;;;;;;20.95;77.59;101497.59;4829467;29;20034;-81
2021/09/08 11:19:56;;;;;;;10.05;5.38;;;;;;;20.72;76.39;101488.50;4827924;29;20015;-82
2021/09/08 11:22:23;;;;;;;6.40;5.27;;;;;;;20.46;76.62;101443.50;4823508;29;20062;-84
2021/09/08 11:25:05;;;;;;;7.80;5.47;;;;;;;20.57;76.36;101458.22;4830347;29;20078;-83
2021/09/08 11:27:31;;;;;;;7.35;5.05;;;;;;;20.71;75.57;101469.63;4814402;29;20045;-82
2021/09/08 11:30:04;;;;;;;7.30;5.30;;;;;;;20.95;75.19;101508.56;4814486;29;20090;-84
2021/09/08 11:32:51;;;;;;;6.15;5.07;;;;;;;20.92;75.27;101531.75;4812827;29;20026;-82
2021/09/08 11:35:40;;;;;;;7.55;5.50;;;;;;;21.38;75.40;101616.50;4810587;29;20027;-81
2021/09/08 11:38:26;;;;;;;6.82;4.85;;;;;;;20.60;76.11;101477.69;4828234;29;20023;-82
2021/09/08 11:40:55;;;;;;;7.97;5.30;;;;;;;21.25;75.81;101579.31;4827965;29;20043;-81
2021/09/08 11:43:31;;;;;;;7.47;5.60;;;;;;;21.53;75.86;101620.28;4828396;29;20034;-82
2021/09/08 11:46:19;;;;;;;7.65;5.80;;;;;;;21.60;75.10;101609.16;4827060;29;20058;-82
2021/09/08 11:48:48;;;;;;;9.20;5.95;;;;;;;20.84;75.59;101502.09;4812897;29;20511;-82
2021/09/08 11:51:17;;;;;;;7.38;5.25;;;;;;;21.16;75.49;101565.25;4827081;29;20023;-82